createdAt,value
2023-01-27T00:00:28.692Z,31.17
2023-01-27T00:02:58.461Z,30.57
2023-01-27T00:05:26.741Z,35.27
2023-01-27T00:07:58.784Z,34.23
2023-01-27T00:10:30.452Z,31.63
2023-01-27T00:13:18.353Z,33.63
2023-01-27T00:15:46.747Z,31.40
2023-01-27T00:18:16.783Z,33.43
2023-01-27T00:21:02.010Z,31.37
2023-01-27T00:23:49.896Z,29.93
2023-01-27T00:26:20.133Z,30.87
2023-01-27T00:28:49.329Z,30.33
2023-01-27T00:31:36.214Z,25.67
2023-01-27T00:34:10.421Z,23.20
2023-01-27T00:36:40.450Z,24.30
2023-01-27T00:39:10.162Z,24.33
2023-01-27T00:41:40.945Z,23.70
2023-01-27T00:44:14.018Z,20.37
2023-01-27T00:46:42.363Z,19.17
2023-01-27T00:49:13.629Z,19.70
2023-01-27T00:51:41.955Z,17.60
2023-01-27T00:54:10.400Z,20.17
2023-01-27T00:56:39.040Z,14.70
2023-01-27T00:59:08.111Z,19.27
2023-01-27T01:01:36.767Z,16.67
2023-01-27T01:04:09.486Z,16.80
2023-01-27T01:06:39.442Z,17.10
2023-01-27T01:09:07.701Z,16.57
2023-01-27T01:11:35.728Z,16.83
2023-01-27T01:14:04.029Z,16.87
2023-01-27T01:16:32.421Z,16.00
2023-01-27T01:19:00.721Z,17.07
2023-01-27T01:21:29.321Z,14.93
2023-01-27T01:24:00.231Z,16.43
2023-01-27T01:26:28.684Z,15.10
2023-01-27T01:28:57.216Z,13.83
2023-01-27T01:31:25.360Z,14.87
2023-01-27T01:33:53.632Z,16.17
2023-01-27T01:36:22.882Z,15.37
2023-01-27T01:38:55.813Z,15.20
2023-01-27T01:41:26.471Z,15.83
2023-01-27T01:43:55.439Z,13.00
2023-01-27T01:46:24.132Z,14.60
2023-01-27T01:48:56.546Z,13.50
2023-01-27T01:51:33.694Z,12.70
2023-01-27T01:54:07.357Z,14.03
2023-01-27T01:56:49.302Z,13.13
2023-01-27T01:59:28.540Z,12.00
2023-01-27T02:02:00.252Z,13.57
2023-01-27T02:04:36.357Z,12.23
2023-01-27T02:07:10.735Z,12.00
2023-01-27T02:09:40.658Z,11.23
2023-01-27T02:12:11.964Z,12.70
2023-01-27T02:14:44.051Z,11.93
2023-01-27T02:17:14.808Z,11.40
2023-01-27T02:19:51.416Z,12.77
2023-01-27T02:22:26.890Z,10.63
2023-01-27T02:25:04.053Z,11.67
2023-01-27T02:27:33.784Z,11.77
2023-01-27T02:30:01.952Z,9.90
2023-01-27T02:32:30.219Z,11.63
2023-01-27T02:34:58.958Z,9.33
2023-01-27T02:37:27.803Z,11.70
2023-01-27T02:40:00.724Z,9.93
2023-01-27T02:42:28.968Z,10.97
2023-01-27T02:44:58.884Z,10.43
2023-01-27T02:47:27.955Z,11.60
2023-01-27T02:49:56.429Z,10.60
2023-01-27T02:52:24.631Z,10.43
2023-01-27T02:54:53.009Z,11.03
2023-01-27T02:57:21.391Z,11.90
2023-01-27T02:59:49.751Z,10.70
2023-01-27T03:02:23.136Z,11.70
2023-01-27T03:04:51.635Z,11.60
2023-01-27T03:07:19.982Z,11.10
2023-01-27T03:09:48.233Z,12.03
2023-01-27T03:12:22.745Z,12.27
2023-01-27T03:15:09.452Z,13.27
2023-01-27T03:17:57.519Z,12.57
2023-01-27T03:20:25.770Z,13.20
2023-01-27T03:22:53.981Z,13.07
2023-01-27T03:25:22.426Z,13.60
2023-01-27T03:27:50.637Z,14.40
2023-01-27T03:30:19.128Z,16.17
2023-01-27T03:32:48.924Z,16.73
2023-01-27T03:35:18.095Z,14.90
2023-01-27T03:38:03.973Z,16.20
2023-01-27T03:40:51.809Z,19.50
2023-01-27T03:43:38.508Z,15.83
2023-01-27T03:46:22.564Z,16.00
2023-01-27T03:48:55.375Z,17.20
2023-01-27T03:51:28.053Z,17.47
2023-01-27T03:53:56.491Z,15.43
2023-01-27T03:56:26.396Z,16.77
2023-01-27T03:58:54.868Z,15.03
2023-01-27T04:01:24.991Z,14.07
2023-01-27T04:04:12.505Z,12.73
2023-01-27T04:06:56.587Z,15.60
2023-01-27T04:09:26.701Z,15.97
2023-01-27T04:11:56.905Z,13.87
2023-01-27T04:14:29.175Z,14.87
2023-01-27T04:16:59.904Z,15.83
2023-01-27T04:19:30.084Z,15.40
2023-01-27T04:22:00.744Z,14.80
2023-01-27T04:24:29.214Z,13.30
2023-01-27T04:26:59.097Z,16.13
2023-01-27T04:29:32.043Z,14.80
2023-01-27T04:32:00.495Z,13.00
2023-01-27T04:34:30.589Z,14.17
2023-01-27T04:36:58.918Z,14.37
2023-01-27T04:39:27.763Z,13.87
2023-01-27T04:41:57.377Z,13.43
2023-01-27T04:44:26.343Z,13.47
2023-01-27T04:46:55.578Z,12.07
2023-01-27T04:49:27.137Z,13.03
2023-01-27T04:51:57.251Z,13.83
2023-01-27T04:54:25.967Z,12.20
2023-01-27T04:56:59.408Z,13.77
2023-01-27T04:59:28.293Z,13.07
2023-01-27T05:01:57.078Z,12.97
2023-01-27T05:04:26.683Z,13.93
2023-01-27T05:06:56.822Z,13.90
2023-01-27T05:09:25.262Z,13.17
2023-01-27T05:11:54.517Z,15.97
2023-01-27T05:14:24.041Z,15.10
2023-01-27T05:16:52.671Z,15.70
2023-01-27T05:19:21.055Z,15.27
2023-01-27T05:21:49.706Z,14.67
2023-01-27T05:24:19.833Z,16.67
2023-01-27T05:26:48.199Z,25.20
2023-01-27T05:29:16.293Z,27.93
2023-01-27T05:31:45.290Z,27.30
2023-01-27T05:34:14.040Z,22.77
2023-01-27T05:36:42.523Z,14.57
2023-01-27T05:39:12.617Z,13.17
2023-01-27T05:41:45.865Z,14.73
2023-01-27T05:44:15.758Z,25.27
2023-01-27T05:46:43.951Z,64.30
2023-01-27T05:49:12.308Z,29.07
2023-01-27T05:51:41.337Z,16.23
2023-01-27T05:54:10.306Z,13.10
2023-01-27T05:56:40.893Z,10.90
2023-01-27T05:59:11.761Z,9.73
2023-01-27T06:01:40.279Z,14.53
2023-01-27T06:04:11.598Z,12.40
2023-01-27T06:06:40.279Z,11.87
2023-01-27T06:09:08.467Z,10.00
2023-01-27T06:11:36.552Z,9.63
2023-01-27T06:14:05.005Z,13.60
2023-01-27T06:16:35.263Z,8.90
2023-01-27T06:19:03.741Z,9.97
2023-01-27T06:21:32.900Z,9.30
2023-01-27T06:24:01.616Z,11.57
2023-01-27T06:26:29.788Z,13.27
2023-01-27T06:28:58.893Z,10.00
2023-01-27T06:31:27.718Z,10.20
2023-01-27T06:33:57.583Z,12.43
2023-01-27T06:36:25.844Z,13.80
2023-01-27T06:38:53.914Z,21.80
2023-01-27T06:41:22.449Z,20.50
2023-01-27T06:43:50.578Z,11.87
2023-01-27T06:46:18.692Z,14.00
2023-01-27T06:48:46.938Z,17.30
2023-01-27T06:51:16.745Z,10.10
2023-01-27T06:53:45.321Z,9.77
2023-01-27T06:56:15.682Z,8.27
2023-01-27T06:58:44.975Z,20.60
2023-01-27T07:01:15.174Z,15.07
2023-01-27T07:03:46.600Z,13.37
2023-01-27T07:06:19.169Z,13.67
2023-01-27T07:08:50.613Z,11.27
2023-01-27T07:11:19.978Z,10.37
2023-01-27T07:13:48.402Z,9.73
2023-01-27T07:16:16.851Z,19.40
2023-01-27T07:18:46.742Z,25.23
2023-01-27T07:21:17.163Z,15.63
2023-01-27T07:23:45.320Z,10.43
2023-01-27T07:26:24.570Z,40.03
2023-01-27T07:28:53.978Z,17.23
2023-01-27T07:31:24.120Z,9.33
2023-01-27T07:33:55.145Z,13.60
2023-01-27T07:36:26.465Z,11.37
2023-01-27T07:38:54.662Z,12.60
2023-01-27T07:41:25.029Z,10.23
2023-01-27T07:43:53.265Z,12.07
2023-01-27T07:46:21.724Z,10.43
2023-01-27T07:48:50.216Z,9.83
2023-01-27T07:51:18.316Z,10.77
2023-01-27T07:53:48.310Z,14.23
2023-01-27T07:56:16.475Z,9.93
2023-01-27T07:58:44.941Z,9.93
2023-01-27T08:01:16.792Z,8.83
2023-01-27T08:03:44.992Z,8.20
2023-01-27T08:06:16.385Z,10.37
2023-01-27T08:08:44.978Z,10.73
2023-01-27T08:11:16.337Z,7.20
2023-01-27T08:13:44.795Z,9.97
2023-01-27T08:16:16.222Z,8.10
2023-01-27T08:18:45.160Z,9.83
2023-01-27T08:21:15.441Z,7.80
2023-01-27T08:23:43.777Z,5.97
2023-01-27T08:26:15.066Z,6.47
2023-01-27T08:28:45.194Z,6.83
2023-01-27T08:31:16.052Z,6.70
2023-01-27T08:33:45.536Z,6.90
2023-01-27T08:36:15.837Z,7.73
2023-01-27T08:38:46.691Z,7.57
2023-01-27T08:41:17.723Z,6.13
2023-01-27T08:43:49.463Z,7.40
2023-01-27T08:46:18.430Z,7.87
2023-01-27T08:48:47.191Z,8.70
2023-01-27T08:51:15.753Z,7.37
2023-01-27T08:53:44.836Z,8.37
2023-01-27T08:56:14.690Z,8.03
2023-01-27T08:58:43.031Z,8.50
2023-01-27T09:01:13.919Z,10.33
2023-01-27T09:03:42.307Z,7.77
2023-01-27T09:06:12.751Z,7.63
2023-01-27T09:08:41.365Z,7.40
2023-01-27T09:11:11.776Z,7.07
2023-01-27T09:13:39.840Z,8.03
2023-01-27T09:16:08.740Z,8.87
2023-01-27T09:18:38.556Z,12.97
2023-01-27T09:21:08.004Z,10.10
2023-01-27T09:23:36.240Z,10.77
2023-01-27T09:26:04.759Z,14.33
2023-01-27T09:28:33.121Z,11.77
2023-01-27T09:31:02.099Z,9.93
2023-01-27T09:33:30.463Z,9.67
2023-01-27T09:36:08.159Z,15.17
2023-01-27T09:38:41.847Z,9.03
2023-01-27T09:41:30.220Z,15.93
2023-01-27T09:44:17.357Z,5.67
2023-01-27T09:47:04.070Z,5.40
2023-01-27T09:49:48.295Z,7.53
2023-01-27T09:52:46.822Z,6.77
2023-01-27T09:55:23.517Z,6.37
2023-01-27T09:58:02.977Z,7.83
2023-01-27T10:00:53.709Z,10.53
2023-01-27T10:03:43.663Z,8.23
2023-01-27T10:06:43.477Z,17.30
2023-01-27T10:09:40.656Z,10.27
2023-01-27T10:12:24.794Z,18.47
2023-01-27T10:15:09.265Z,11.50
2023-01-27T10:17:50.290Z,16.80
2023-01-27T10:20:31.180Z,9.43
2023-01-27T10:23:10.806Z,5.17
2023-01-27T10:25:54.669Z,6.50
2023-01-27T10:28:26.294Z,6.67
2023-01-27T10:31:03.711Z,5.07
2023-01-27T10:33:47.803Z,5.53
2023-01-27T10:36:26.505Z,5.50
2023-01-27T10:39:10.427Z,3.37
2023-01-27T10:41:50.882Z,4.53
2023-01-27T10:44:34.955Z,4.90
2023-01-27T10:47:13.521Z,4.20
2023-01-27T10:49:49.639Z,3.43
2023-01-27T10:52:21.971Z,4.53
2023-01-27T10:54:57.293Z,5.07
2023-01-27T10:57:32.616Z,4.67
2023-01-27T11:00:41.885Z,3.77
2023-01-27T11:03:02.375Z,3.70
2023-01-27T11:05:35.575Z,4.97
2023-01-27T11:08:09.747Z,5.83
2023-01-27T11:11:03.717Z,5.00
2023-01-27T11:13:34.697Z,3.40
2023-01-27T11:16:06.178Z,2.80
2023-01-27T11:18:38.959Z,3.63
2023-01-27T11:21:11.031Z,2.63
2023-01-27T11:23:43.462Z,5.03
2023-01-27T11:26:27.683Z,5.83
2023-01-27T11:29:20.480Z,25.83
2023-01-27T11:31:56.614Z,14.30
2023-01-27T11:34:32.903Z,5.50
2023-01-27T11:37:02.774Z,3.90
2023-01-27T11:39:34.162Z,2.57
2023-01-27T11:42:02.636Z,2.80
2023-01-27T11:44:35.504Z,2.60
2023-01-27T11:47:08.189Z,2.93
2023-01-27T11:49:42.613Z,2.97
2023-01-27T11:52:14.233Z,2.80
2023-01-27T11:54:47.002Z,4.53
2023-01-27T11:57:21.677Z,2.87
2023-01-27T11:59:58.586Z,2.57
2023-01-27T12:02:35.655Z,5.47
2023-01-27T12:05:10.102Z,23.17
2023-01-27T12:07:47.600Z,10.57
2023-01-27T12:10:32.079Z,10.67
2023-01-27T12:13:03.060Z,3.93
2023-01-27T12:15:33.494Z,4.90
2023-01-27T12:18:04.937Z,2.50
2023-01-27T12:20:38.648Z,6.40
2023-01-27T12:23:21.770Z,2.90
2023-01-27T12:25:56.189Z,7.63
2023-01-27T12:28:35.162Z,1.80
2023-01-27T12:31:11.875Z,4.07
2023-01-27T12:33:45.545Z,4.90
2023-01-27T12:36:18.380Z,3.10
2023-01-27T12:38:52.343Z,7.03
2023-01-27T12:41:26.691Z,3.03
2023-01-27T12:43:57.144Z,2.90
2023-01-27T12:46:28.369Z,3.07
2023-01-27T12:49:07.233Z,3.00
2023-01-27T12:51:42.258Z,1.77
2023-01-27T12:54:22.000Z,1.50
2023-01-27T12:56:52.029Z,1.73
2023-01-27T12:59:21.647Z,10.90
2023-01-27T13:02:03.710Z,9.73
2023-01-27T13:04:32.396Z,5.80
2023-01-27T13:07:09.794Z,2.47
2023-01-27T13:09:47.421Z,2.87
2023-01-27T13:12:21.836Z,1.60
2023-01-27T13:14:54.396Z,2.90
2023-01-27T13:17:43.682Z,3.13
2023-01-27T13:20:23.355Z,2.97
2023-01-27T13:22:55.092Z,14.87
2023-01-27T13:25:26.166Z,15.27
2023-01-27T13:28:01.004Z,6.23
2023-01-27T13:30:35.689Z,5.87
2023-01-27T13:33:22.187Z,6.17
2023-01-27T13:35:59.246Z,6.27
2023-01-27T13:38:36.615Z,2.70
2023-01-27T13:41:15.430Z,8.03
2023-01-27T13:43:59.026Z,11.20
2023-01-27T13:46:30.811Z,2.70
2023-01-27T13:49:13.875Z,4.03
2023-01-27T13:51:42.161Z,2.97
2023-01-27T13:54:15.675Z,2.90
2023-01-27T13:56:56.348Z,4.13
2023-01-27T13:59:39.512Z,12.83
2023-01-27T14:02:32.382Z,4.13
2023-01-27T14:05:21.307Z,6.37
2023-01-27T14:07:59.686Z,11.07
2023-01-27T14:10:36.557Z,6.30
2023-01-27T14:13:31.290Z,13.13
2023-01-27T14:16:07.669Z,7.33
2023-01-27T14:18:39.283Z,6.87
2023-01-27T14:21:25.009Z,3.00
2023-01-27T14:24:08.549Z,3.50
2023-01-27T14:26:48.337Z,3.20
2023-01-27T14:29:29.697Z,3.83
2023-01-27T14:32:04.467Z,2.60
2023-01-27T14:34:42.132Z,3.13
2023-01-27T14:37:25.162Z,3.37
2023-01-27T14:40:09.385Z,3.43
2023-01-27T14:42:43.561Z,3.70
2023-01-27T14:45:21.867Z,5.73
2023-01-27T14:47:58.528Z,3.00
2023-01-27T14:50:35.010Z,3.83
2023-01-27T14:53:24.450Z,4.17
2023-01-27T14:55:59.951Z,5.80
2023-01-27T14:58:56.172Z,4.00
2023-01-27T15:01:36.188Z,4.30
2023-01-27T15:04:40.522Z,4.10
2023-01-27T15:07:16.346Z,7.60
2023-01-27T15:10:25.051Z,8.10
2023-01-27T15:13:18.710Z,6.77
2023-01-27T15:16:21.045Z,3.67
2023-01-27T15:19:08.576Z,4.87
2023-01-27T15:22:31.171Z,3.60
2023-01-27T15:25:18.333Z,5.40
2023-01-27T15:27:59.972Z,8.30
2023-01-27T15:30:30.277Z,7.77
2023-01-27T15:32:58.956Z,10.10
2023-01-27T15:35:41.336Z,4.10
2023-01-27T15:38:34.715Z,2.63
2023-01-27T15:41:13.865Z,3.23
2023-01-27T15:44:05.069Z,5.43
2023-01-27T15:46:36.329Z,6.03
2023-01-27T15:49:06.050Z,6.67
2023-01-27T15:51:37.894Z,4.27
2023-01-27T15:54:07.420Z,6.17
2023-01-27T15:56:44.270Z,2.13
2023-01-27T15:59:17.463Z,4.07
2023-01-27T16:01:49.017Z,5.60
2023-01-27T16:04:23.369Z,2.40
2023-01-27T16:07:02.215Z,25.20
2023-01-27T16:09:43.540Z,19.97
2023-01-27T16:12:30.459Z,94.70
2023-01-27T16:15:33.668Z,34.40
2023-01-27T16:18:26.182Z,18.90
2023-01-27T16:21:02.304Z,22.07
2023-01-27T16:23:44.247Z,35.07
2023-01-27T16:26:29.190Z,14.77
2023-01-27T16:29:07.642Z,14.67
2023-01-27T16:31:40.500Z,7.10
2023-01-27T16:34:19.174Z,3.70
2023-01-27T16:36:48.308Z,4.43
2023-01-27T16:39:32.126Z,3.17
2023-01-27T16:42:01.197Z,3.83
2023-01-27T16:44:39.916Z,4.17
2023-01-27T16:47:22.934Z,5.93
2023-01-27T16:49:56.655Z,4.53
2023-01-27T16:52:41.877Z,4.87
2023-01-27T16:55:23.018Z,4.33
2023-01-27T16:57:54.255Z,3.30
2023-01-27T17:00:25.174Z,4.07
2023-01-27T17:02:57.435Z,4.57
2023-01-27T17:05:25.977Z,3.73
2023-01-27T17:08:04.547Z,6.87
2023-01-27T17:10:35.040Z,6.00
2023-01-27T17:13:04.557Z,4.27
2023-01-27T17:15:38.102Z,4.00
2023-01-27T17:18:10.555Z,4.10
2023-01-27T17:20:44.717Z,5.43
2023-01-27T17:23:24.187Z,3.87
2023-01-27T17:25:57.912Z,6.33
2023-01-27T17:28:28.975Z,5.20
2023-01-27T17:31:07.981Z,5.47
2023-01-27T17:33:39.416Z,4.80
2023-01-27T17:36:12.317Z,6.70
2023-01-27T17:38:48.091Z,9.70
2023-01-27T17:41:32.220Z,6.00
2023-01-27T17:44:06.521Z,5.20
2023-01-27T17:46:35.810Z,14.27
2023-01-27T17:49:09.595Z,11.07
2023-01-27T17:51:41.563Z,13.50
2023-01-27T17:54:21.940Z,5.13
2023-01-27T17:56:53.288Z,6.73
2023-01-27T17:59:23.325Z,8.53
2023-01-27T18:01:55.037Z,7.40
2023-01-27T18:04:26.815Z,5.80
2023-01-27T18:06:55.586Z,5.73
2023-01-27T18:09:29.739Z,6.13
2023-01-27T18:12:00.624Z,7.57
2023-01-27T18:17:23.260Z,3.70
2023-01-27T18:19:54.637Z,6.67
2023-01-27T18:22:26.129Z,6.33
2023-01-27T18:24:57.260Z,6.87
2023-01-27T18:27:29.171Z,8.77
2023-01-27T18:30:04.500Z,9.83
2023-01-27T18:32:42.613Z,5.43
2023-01-27T18:35:28.084Z,3.47
2023-01-27T18:38:00.344Z,4.07
2023-01-27T18:40:33.737Z,3.20
2023-01-27T18:43:04.051Z,3.77
2023-01-27T18:45:32.531Z,4.53
2023-01-27T18:48:01.126Z,5.50
2023-01-27T18:50:40.972Z,5.00
2023-01-27T18:53:16.331Z,3.53
2023-01-27T18:55:45.824Z,5.40
2023-01-27T18:58:18.084Z,3.83
2023-01-27T19:00:51.205Z,4.27
2023-01-27T19:03:22.428Z,4.50
2023-01-27T19:05:53.391Z,5.10
2023-01-27T19:08:23.564Z,3.73
2023-01-27T19:10:52.940Z,4.77
2023-01-27T19:13:22.121Z,3.57
2023-01-27T19:15:54.528Z,3.93
2023-01-27T19:18:26.675Z,5.23
2023-01-27T19:20:56.644Z,8.67
2023-01-27T19:23:25.303Z,8.90
2023-01-27T19:25:55.984Z,5.57
2023-01-27T19:28:29.884Z,28.13
2023-01-27T19:30:58.285Z,25.43
2023-01-27T19:33:28.653Z,25.70
2023-01-27T19:36:03.015Z,67.97
2023-01-27T19:38:31.619Z,20.40
2023-01-27T19:40:59.867Z,27.53
2023-01-27T19:43:28.347Z,15.53
2023-01-27T19:45:56.995Z,11.83
2023-01-27T19:48:26.601Z,5.83
2023-01-27T19:50:55.398Z,7.10
2023-01-27T19:53:24.984Z,7.47
2023-01-27T19:55:59.100Z,5.43
2023-01-27T19:58:29.419Z,6.73
2023-01-27T20:00:57.982Z,17.80
2023-01-27T20:03:26.921Z,11.73
2023-01-27T20:05:55.243Z,10.90
2023-01-27T20:08:25.104Z,8.20
2023-01-27T20:10:53.595Z,5.00
2023-01-27T20:13:24.068Z,8.87
2023-01-27T20:15:52.627Z,4.40
2023-01-27T20:18:23.828Z,9.10
2023-01-27T20:20:53.628Z,7.23
2023-01-27T20:23:24.714Z,12.27
2023-01-27T20:25:54.028Z,9.70
2023-01-27T20:28:23.343Z,7.00
2023-01-27T20:30:51.965Z,11.70
2023-01-27T20:33:21.294Z,16.30
2023-01-27T20:35:49.648Z,7.13
2023-01-27T20:38:18.097Z,5.83
2023-01-27T20:40:48.103Z,7.20
2023-01-27T20:43:26.549Z,5.33
2023-01-27T20:46:07.075Z,6.13
2023-01-27T20:48:35.621Z,12.10
2023-01-27T20:51:07.456Z,6.03
2023-01-27T20:53:41.840Z,18.73
2023-01-27T20:56:14.870Z,14.20
2023-01-27T20:58:50.547Z,31.10
2023-01-27T21:01:23.030Z,31.17
2023-01-27T21:03:52.446Z,21.27
2023-01-27T21:06:21.100Z,15.27
2023-01-27T21:08:49.829Z,6.70
2023-01-27T21:11:21.447Z,7.60
2023-01-27T21:13:50.364Z,5.07
2023-01-27T21:16:19.216Z,4.97
2023-01-27T21:18:47.760Z,5.23
2023-01-27T21:21:23.438Z,4.93
2023-01-27T21:23:51.948Z,4.50
2023-01-27T21:26:25.640Z,13.07
2023-01-27T21:28:54.274Z,10.60
2023-01-27T21:31:24.460Z,8.97
2023-01-27T21:33:53.286Z,6.77
2023-01-27T21:36:22.086Z,6.97
2023-01-27T21:38:53.989Z,4.23
2023-01-27T21:41:42.723Z,5.70
2023-01-27T21:44:35.147Z,6.87
2023-01-27T21:47:03.414Z,4.10
2023-01-27T21:49:31.864Z,5.60
2023-01-27T21:52:00.246Z,5.90
2023-01-27T21:54:34.499Z,6.37
2023-01-27T21:57:04.511Z,5.23
2023-01-27T21:59:34.487Z,5.83
2023-01-27T22:02:02.924Z,4.63
2023-01-27T22:04:31.310Z,4.87
2023-01-27T22:06:59.318Z,5.97
2023-01-27T22:09:27.490Z,6.27
2023-01-27T22:11:56.652Z,3.93
2023-01-27T22:14:26.925Z,3.97
2023-01-27T22:16:55.206Z,6.63
2023-01-27T22:19:23.787Z,5.43
2023-01-27T22:21:52.409Z,5.13
2023-01-27T22:24:22.543Z,4.57
2023-01-27T22:26:50.731Z,4.23
2023-01-27T22:29:19.333Z,4.13
2023-01-27T22:31:50.805Z,5.70
2023-01-27T22:34:19.267Z,5.97
2023-01-27T22:36:51.857Z,5.23
2023-01-27T22:39:20.962Z,5.93
2023-01-27T22:41:50.532Z,5.97
2023-01-27T22:44:19.759Z,7.33
2023-01-27T22:46:50.843Z,4.33
2023-01-27T22:49:19.184Z,5.10
2023-01-27T22:51:49.139Z,5.77
2023-01-27T22:54:17.361Z,5.63
2023-01-27T22:56:45.655Z,4.70
2023-01-27T22:59:15.044Z,5.33
2023-01-27T23:01:44.547Z,4.40
2023-01-27T23:04:17.002Z,5.70
2023-01-27T23:06:45.628Z,6.10
2023-01-27T23:09:14.457Z,5.57
2023-01-27T23:11:42.793Z,6.37
2023-01-27T23:14:11.082Z,4.10
2023-01-27T23:16:39.501Z,4.30
2023-01-27T23:19:08.020Z,6.20
2023-01-27T23:21:37.844Z,6.00
2023-01-27T23:24:07.691Z,5.90
2023-01-27T23:26:37.885Z,4.80
2023-01-27T23:29:22.887Z,7.27
2023-01-27T23:31:53.045Z,5.73
2023-01-27T23:34:21.905Z,5.53
2023-01-27T23:36:52.399Z,7.77
2023-01-27T23:39:23.327Z,5.43
2023-01-27T23:41:51.934Z,5.60
2023-01-27T23:44:20.639Z,7.53
2023-01-27T23:46:48.857Z,6.17
2023-01-27T23:49:17.471Z,7.00
2023-01-27T23:51:45.525Z,5.37
2023-01-27T23:54:15.176Z,4.97
2023-01-27T23:56:43.543Z,6.47
2023-01-27T23:59:13.408Z,5.67
